Terminal Aerodrome Forecast
Issued by NWS

Home | Current Version | Previous Version | Graphics & Text | Print | Product List | Glossary On
Versions: 1 2 3 4 5 6 7 8 9 10 11 12 13 14 15 16 17 18 19 20
000
FTUS42 KMHX 211739
TAFPGV
TAF
KPGV 211739Z 2118/2218 17010KT P6SM SHRA VCTS SCT025 BKN030CB
      TEMPO 2119/2122 5SM TSRA BR OVC015CB
     FM220000 36004KT P6SM OVC015
     FM220500 34003KT P6SM BKN007
     FM221200 36008KT P6SM SCT030
      AMD LTD TO CLD VIS AND WIND=

USA.gov is the U.S. government's official web portal to all federal, state and local government web resources and services.